sensor_id;sensor_type;location;lat;lon;timestamp;P1;durP1;ratioP1;P2;durP2;ratioP2
51883;SDS011;37915;53.254;6.598;2024-03-22T00:01:43;28.65;;;16.20;;
51883;SDS011;37915;53.254;6.598;2024-03-22T00:04:09;31.83;;;18.42;;
51883;SDS011;37915;53.254;6.598;2024-03-22T00:06:35;31.20;;;17.65;;
51883;SDS011;37915;53.254;6.598;2024-03-22T00:09:01;26.02;;;16.88;;
51883;SDS011;37915;53.254;6.598;2024-03-22T00:11:27;26.95;;;16.83;;
51883;SDS011;37915;53.254;6.598;2024-03-22T00:13:54;27.50;;;17.10;;
51883;SDS011;37915;53.254;6.598;2024-03-22T00:16:20;25.08;;;16.00;;
51883;SDS011;37915;53.254;6.598;2024-03-22T00:18:46;26.58;;;16.42;;
51883;SDS011;37915;53.254;6.598;2024-03-22T00:21:12;28.20;;;18.17;;
51883;SDS011;37915;53.254;6.598;2024-03-22T00:23:38;25.42;;;16.17;;
51883;SDS011;37915;53.254;6.598;2024-03-22T00:26:04;27.98;;;17.05;;
51883;SDS011;37915;53.254;6.598;2024-03-22T00:28:30;27.20;;;17.02;;
51883;SDS011;37915;53.254;6.598;2024-03-22T00:30:56;30.23;;;17.27;;
51883;SDS011;37915;53.254;6.598;2024-03-22T00:33:22;28.70;;;18.48;;
51883;SDS011;37915;53.254;6.598;2024-03-22T00:35:48;29.77;;;18.02;;
51883;SDS011;37915;53.254;6.598;2024-03-22T00:38:14;26.05;;;16.52;;
51883;SDS011;37915;53.254;6.598;2024-03-22T00:40:41;28.55;;;17.00;;
51883;SDS011;37915;53.254;6.598;2024-03-22T00:43:07;30.02;;;17.60;;
51883;SDS011;37915;53.254;6.598;2024-03-22T00:45:33;29.63;;;19.55;;
51883;SDS011;37915;53.254;6.598;2024-03-22T00:47:59;27.67;;;17.50;;
51883;SDS011;37915;53.254;6.598;2024-03-22T00:50:25;29.05;;;18.63;;
51883;SDS011;37915;53.254;6.598;2024-03-22T00:52:52;28.30;;;17.83;;
51883;SDS011;37915;53.254;6.598;2024-03-22T00:55:20;29.17;;;19.63;;
51883;SDS011;37915;53.254;6.598;2024-03-22T00:57:46;33.40;;;19.05;;
51883;SDS011;37915;53.254;6.598;2024-03-22T01:00:12;33.75;;;21.10;;
51883;SDS011;37915;53.254;6.598;2024-03-22T01:02:39;31.83;;;20.05;;
51883;SDS011;37915;53.254;6.598;2024-03-22T01:05:05;31.75;;;18.20;;
51883;SDS011;37915;53.254;6.598;2024-03-22T01:07:32;35.60;;;19.42;;
51883;SDS011;37915;53.254;6.598;2024-03-22T01:09:58;37.60;;;18.92;;
51883;SDS011;37915;53.254;6.598;2024-03-22T01:12:24;32.40;;;20.90;;
51883;SDS011;37915;53.254;6.598;2024-03-22T01:14:50;31.48;;;18.98;;
51883;SDS011;37915;53.254;6.598;2024-03-22T01:17:16;32.45;;;19.33;;
51883;SDS011;37915;53.254;6.598;2024-03-22T01:19:42;38.03;;;22.25;;
51883;SDS011;37915;53.254;6.598;2024-03-22T01:22:08;32.22;;;20.27;;
51883;SDS011;37915;53.254;6.598;2024-03-22T01:24:34;35.17;;;20.35;;
51883;SDS011;37915;53.254;6.598;2024-03-22T01:27:00;35.55;;;19.38;;
51883;SDS011;37915;53.254;6.598;2024-03-22T01:29:27;39.28;;;21.23;;
51883;SDS011;37915;53.254;6.598;2024-03-22T01:31:55;33.78;;;21.98;;
51883;SDS011;37915;53.254;6.598;2024-03-22T01:34:22;37.08;;;22.25;;
51883;SDS011;37915;53.254;6.598;2024-03-22T01:36:48;40.05;;;21.13;;
51883;SDS011;37915;53.254;6.598;2024-03-22T01:39:14;39.88;;;22.75;;
51883;SDS011;37915;53.254;6.598;2024-03-22T01:41:40;37.58;;;21.73;;
51883;SDS011;37915;53.254;6.598;2024-03-22T01:44:07;38.22;;;21.35;;
51883;SDS011;37915;53.254;6.598;2024-03-22T01:46:33;35.15;;;21.10;;
51883;SDS011;37915;53.254;6.598;2024-03-22T01:48:59;38.50;;;21.45;;
51883;SDS011;37915;53.254;6.598;2024-03-22T01:51:25;37.95;;;23.20;;
51883;SDS011;37915;53.254;6.598;2024-03-22T01:53:52;40.47;;;22.45;;
51883;SDS011;37915;53.254;6.598;2024-03-22T01:56:18;40.00;;;22.08;;
51883;SDS011;37915;53.254;6.598;2024-03-22T01:58:45;41.78;;;25.13;;
51883;SDS011;37915;53.254;6.598;2024-03-22T02:01:11;41.10;;;23.40;;
51883;SDS011;37915;53.254;6.598;2024-03-22T02:03:37;48.15;;;24.55;;
51883;SDS011;37915;53.254;6.598;2024-03-22T02:06:03;41.33;;;23.63;;
51883;SDS011;37915;53.254;6.598;2024-03-22T02:08:30;45.08;;;24.15;;
51883;SDS011;37915;53.254;6.598;2024-03-22T02:10:56;41.10;;;23.27;;
51883;SDS011;37915;53.254;6.598;2024-03-22T02:13:22;48.95;;;24.60;;
51883;SDS011;37915;53.254;6.598;2024-03-22T02:15:48;40.35;;;23.67;;
51883;SDS011;37915;53.254;6.598;2024-03-22T02:18:15;40.95;;;22.67;;
51883;SDS011;37915;53.254;6.598;2024-03-22T02:20:41;44.80;;;24.80;;
51883;SDS011;37915;53.254;6.598;2024-03-22T02:23:07;49.38;;;24.65;;
51883;SDS011;37915;53.254;6.598;2024-03-22T02:25:33;42.47;;;24.23;;
51883;SDS011;37915;53.254;6.598;2024-03-22T02:27:59;47.03;;;25.80;;
51883;SDS011;37915;53.254;6.598;2024-03-22T02:30:25;47.42;;;25.27;;
51883;SDS011;37915;53.254;6.598;2024-03-22T02:32:51;50.05;;;25.02;;
51883;SDS011;37915;53.254;6.598;2024-03-22T02:35:17;43.45;;;23.15;;
51883;SDS011;37915;53.254;6.598;2024-03-22T02:37:43;47.30;;;25.65;;
51883;SDS011;37915;53.254;6.598;2024-03-22T02:40:10;44.90;;;25.45;;
51883;SDS011;37915;53.254;6.598;2024-03-22T02:42:36;45.80;;;25.70;;
51883;SDS011;37915;53.254;6.598;2024-03-22T02:45:02;43.10;;;23.70;;
51883;SDS011;37915;53.254;6.598;2024-03-22T02:47:28;42.83;;;24.75;;
51883;SDS011;37915;53.254;6.598;2024-03-22T02:49:54;50.35;;;25.95;;
51883;SDS011;37915;53.254;6.598;2024-03-22T02:52:20;52.05;;;25.40;;
51883;SDS011;37915;53.254;6.598;2024-03-22T02:54:46;46.75;;;25.65;;
51883;SDS011;37915;53.254;6.598;2024-03-22T02:57:12;46.35;;;24.38;;
51883;SDS011;37915;53.254;6.598;2024-03-22T02:59:38;56.72;;;28.25;;
51883;SDS011;37915;53.254;6.598;2024-03-22T03:02:04;46.10;;;25.85;;
51883;SDS011;37915;53.254;6.598;2024-03-22T03:04:31;47.72;;;24.63;;
51883;SDS011;37915;53.254;6.598;2024-03-22T03:06:57;59.05;;;27.20;;
51883;SDS011;37915;53.254;6.598;2024-03-22T03:09:23;52.70;;;26.00;;
51883;SDS011;37915;53.254;6.598;2024-03-22T03:11:49;51.28;;;26.35;;
51883;SDS011;37915;53.254;6.598;2024-03-22T03:14:15;53.78;;;27.63;;
51883;SDS011;37915;53.254;6.598;2024-03-22T03:16:41;54.42;;;28.42;;
51883;SDS011;37915;53.254;6.598;2024-03-22T03:19:07;52.90;;;26.63;;
51883;SDS011;37915;53.254;6.598;2024-03-22T03:21:33;55.83;;;27.42;;
51883;SDS011;37915;53.254;6.598;2024-03-22T03:23:59;53.22;;;27.88;;
51883;SDS011;37915;53.254;6.598;2024-03-22T03:26:25;57.17;;;28.85;;
51883;SDS011;37915;53.254;6.598;2024-03-22T03:28:52;51.63;;;26.30;;
51883;SDS011;37915;53.254;6.598;2024-03-22T03:31:19;53.90;;;27.88;;
51883;SDS011;37915;53.254;6.598;2024-03-22T03:33:46;53.35;;;27.33;;
51883;SDS011;37915;53.254;6.598;2024-03-22T03:36:12;50.45;;;26.90;;
51883;SDS011;37915;53.254;6.598;2024-03-22T03:38:38;57.28;;;27.55;;
51883;SDS011;37915;53.254;6.598;2024-03-22T03:41:04;53.25;;;27.90;;
51883;SDS011;37915;53.254;6.598;2024-03-22T03:43:30;53.03;;;27.30;;
51883;SDS011;37915;53.254;6.598;2024-03-22T03:45:56;48.90;;;26.40;;
51883;SDS011;37915;53.254;6.598;2024-03-22T03:48:22;51.35;;;26.02;;
51883;SDS011;37915;53.254;6.598;2024-03-22T03:50:52;56.15;;;27.63;;
51883;SDS011;37915;53.254;6.598;2024-03-22T03:53:19;53.60;;;26.17;;
51883;SDS011;37915;53.254;6.598;2024-03-22T03:55:45;53.00;;;27.75;;
51883;SDS011;37915;53.254;6.598;2024-03-22T03:58:11;51.85;;;26.67;;
51883;SDS011;37915;53.254;6.598;2024-03-22T04:00:37;49.75;;;26.55;;
51883;SDS011;37915;53.254;6.598;2024-03-22T04:03:04;53.25;;;26.88;;
51883;SDS011;37915;53.254;6.598;2024-03-22T04:05:30;50.03;;;27.13;;
51883;SDS011;37915;53.254;6.598;2024-03-22T04:07:56;48.40;;;26.05;;
51883;SDS011;37915;53.254;6.598;2024-03-22T04:10:22;52.00;;;26.80;;
51883;SDS011;37915;53.254;6.598;2024-03-22T04:12:48;47.20;;;25.92;;
51883;SDS011;37915;53.254;6.598;2024-03-22T04:15:14;53.88;;;28.10;;
51883;SDS011;37915;53.254;6.598;2024-03-22T04:17:40;47.63;;;26.30;;
51883;SDS011;37915;53.254;6.598;2024-03-22T04:20:06;55.75;;;26.25;;
51883;SDS011;37915;53.254;6.598;2024-03-22T04:22:33;52.92;;;25.05;;
51883;SDS011;37915;53.254;6.598;2024-03-22T04:25:00;50.38;;;26.83;;
51883;SDS011;37915;53.254;6.598;2024-03-22T04:27:26;60.75;;;25.95;;
51883;SDS011;37915;53.254;6.598;2024-03-22T04:29:52;49.00;;;25.23;;
51883;SDS011;37915;53.254;6.598;2024-03-22T04:32:18;47.30;;;25.83;;
51883;SDS011;37915;53.254;6.598;2024-03-22T04:34:44;46.17;;;24.70;;
51883;SDS011;37915;53.254;6.598;2024-03-22T04:37:10;48.03;;;24.73;;
51883;SDS011;37915;53.254;6.598;2024-03-22T04:39:37;45.88;;;24.50;;
51883;SDS011;37915;53.254;6.598;2024-03-22T04:42:03;53.72;;;25.90;;
51883;SDS011;37915;53.254;6.598;2024-03-22T04:44:30;49.15;;;25.50;;
51883;SDS011;37915;53.254;6.598;2024-03-22T04:46:56;51.80;;;26.92;;
51883;SDS011;37915;53.254;6.598;2024-03-22T04:49:22;47.78;;;24.83;;
51883;SDS011;37915;53.254;6.598;2024-03-22T04:51:48;58.97;;;26.52;;
51883;SDS011;37915;53.254;6.598;2024-03-22T04:54:14;48.50;;;25.42;;
51883;SDS011;37915;53.254;6.598;2024-03-22T04:56:40;49.08;;;25.45;;
51883;SDS011;37915;53.254;6.598;2024-03-22T04:59:06;47.55;;;24.67;;
51883;SDS011;37915;53.254;6.598;2024-03-22T05:01:32;47.70;;;25.75;;
51883;SDS011;37915;53.254;6.598;2024-03-22T05:03:58;44.78;;;24.20;;
51883;SDS011;37915;53.254;6.598;2024-03-22T05:06:24;46.30;;;25.88;;
51883;SDS011;37915;53.254;6.598;2024-03-22T05:08:50;48.92;;;24.55;;
51883;SDS011;37915;53.254;6.598;2024-03-22T05:11:17;46.28;;;23.75;;
51883;SDS011;37915;53.254;6.598;2024-03-22T05:13:43;45.40;;;23.35;;
51883;SDS011;37915;53.254;6.598;2024-03-22T05:16:09;47.97;;;24.33;;
51883;SDS011;37915;53.254;6.598;2024-03-22T05:18:36;45.35;;;23.45;;
51883;SDS011;37915;53.254;6.598;2024-03-22T05:21:02;45.58;;;22.80;;
51883;SDS011;37915;53.254;6.598;2024-03-22T05:23:29;46.70;;;24.15;;
51883;SDS011;37915;53.254;6.598;2024-03-22T05:25:55;42.88;;;22.05;;
51883;SDS011;37915;53.254;6.598;2024-03-22T05:28:21;39.90;;;21.95;;
51883;SDS011;37915;53.254;6.598;2024-03-22T05:30:47;49.47;;;22.25;;
51883;SDS011;37915;53.254;6.598;2024-03-22T05:33:13;43.65;;;22.45;;
51883;SDS011;37915;53.254;6.598;2024-03-22T05:35:39;44.92;;;22.27;;
51883;SDS011;37915;53.254;6.598;2024-03-22T05:38:06;44.17;;;21.83;;
51883;SDS011;37915;53.254;6.598;2024-03-22T05:40:33;42.30;;;23.02;;
51883;SDS011;37915;53.254;6.598;2024-03-22T05:43:03;43.20;;;21.63;;
51883;SDS011;37915;53.254;6.598;2024-03-22T05:45:29;40.13;;;20.90;;
51883;SDS011;37915;53.254;6.598;2024-03-22T05:47:55;37.03;;;20.45;;
51883;SDS011;37915;53.254;6.598;2024-03-22T05:50:21;38.88;;;20.05;;
51883;SDS011;37915;53.254;6.598;2024-03-22T05:52:48;38.08;;;18.75;;
51883;SDS011;37915;53.254;6.598;2024-03-22T05:55:14;39.30;;;19.85;;
51883;SDS011;37915;53.254;6.598;2024-03-22T05:57:40;40.55;;;19.55;;
51883;SDS011;37915;53.254;6.598;2024-03-22T06:00:06;41.72;;;21.27;;
51883;SDS011;37915;53.254;6.598;2024-03-22T06:02:33;41.35;;;21.00;;
51883;SDS011;37915;53.254;6.598;2024-03-22T06:04:59;43.33;;;20.48;;
51883;SDS011;37915;53.254;6.598;2024-03-22T06:07:25;39.45;;;19.30;;
51883;SDS011;37915;53.254;6.598;2024-03-22T06:09:51;44.85;;;20.35;;
51883;SDS011;37915;53.254;6.598;2024-03-22T06:12:18;37.58;;;17.73;;
51883;SDS011;37915;53.254;6.598;2024-03-22T06:14:44;38.38;;;18.05;;
51883;SDS011;37915;53.254;6.598;2024-03-22T06:17:12;36.00;;;19.40;;
51883;SDS011;37915;53.254;6.598;2024-03-22T06:19:39;32.60;;;16.30;;
51883;SDS011;37915;53.254;6.598;2024-03-22T06:22:05;39.08;;;18.05;;
51883;SDS011;37915;53.254;6.598;2024-03-22T06:24:31;30.67;;;16.45;;
51883;SDS011;37915;53.254;6.598;2024-03-22T06:26:58;32.90;;;16.83;;
51883;SDS011;37915;53.254;6.598;2024-03-22T06:29:24;32.88;;;16.00;;
51883;SDS011;37915;53.254;6.598;2024-03-22T06:31:50;30.50;;;14.40;;
51883;SDS011;37915;53.254;6.598;2024-03-22T06:34:17;33.80;;;15.95;;
51883;SDS011;37915;53.254;6.598;2024-03-22T06:36:43;26.98;;;13.02;;
51883;SDS011;37915;53.254;6.598;2024-03-22T06:39:09;29.08;;;13.05;;
51883;SDS011;37915;53.254;6.598;2024-03-22T06:41:35;25.40;;;12.82;;
51883;SDS011;37915;53.254;6.598;2024-03-22T06:44:02;24.02;;;12.90;;
51883;SDS011;37915;53.254;6.598;2024-03-22T06:46:28;25.15;;;13.07;;
51883;SDS011;37915;53.254;6.598;2024-03-22T06:48:54;20.08;;;13.40;;
51883;SDS011;37915;53.254;6.598;2024-03-22T06:51:21;30.77;;;13.90;;
51883;SDS011;37915;53.254;6.598;2024-03-22T06:53:47;28.23;;;12.52;;
51883;SDS011;37915;53.254;6.598;2024-03-22T06:56:13;26.98;;;13.90;;
51883;SDS011;37915;53.254;6.598;2024-03-22T06:58:40;27.90;;;13.30;;
51883;SDS011;37915;53.254;6.598;2024-03-22T07:01:06;29.65;;;13.25;;
51883;SDS011;37915;53.254;6.598;2024-03-22T07:03:32;24.83;;;12.93;;
51883;SDS011;37915;53.254;6.598;2024-03-22T07:05:58;28.17;;;13.30;;
51883;SDS011;37915;53.254;6.598;2024-03-22T07:08:25;30.02;;;12.65;;
51883;SDS011;37915;53.254;6.598;2024-03-22T07:10:51;25.75;;;12.63;;
51883;SDS011;37915;53.254;6.598;2024-03-22T07:13:20;23.35;;;12.20;;
51883;SDS011;37915;53.254;6.598;2024-03-22T07:15:47;23.13;;;11.02;;
51883;SDS011;37915;53.254;6.598;2024-03-22T07:18:16;21.80;;;10.15;;
51883;SDS011;37915;53.254;6.598;2024-03-22T07:20:42;28.00;;;11.65;;
51883;SDS011;37915;53.254;6.598;2024-03-22T07:23:08;22.45;;;10.65;;
51883;SDS011;37915;53.254;6.598;2024-03-22T07:25:34;20.75;;;10.23;;
51883;SDS011;37915;53.254;6.598;2024-03-22T07:28:01;20.45;;;10.40;;
51883;SDS011;37915;53.254;6.598;2024-03-22T07:30:27;24.85;;;11.57;;
51883;SDS011;37915;53.254;6.598;2024-03-22T07:32:53;21.63;;;11.32;;
51883;SDS011;37915;53.254;6.598;2024-03-22T07:35:19;20.30;;;11.13;;
51883;SDS011;37915;53.254;6.598;2024-03-22T07:37:45;20.95;;;10.65;;
51883;SDS011;37915;53.254;6.598;2024-03-22T07:40:11;23.83;;;10.60;;
51883;SDS011;37915;53.254;6.598;2024-03-22T07:42:37;21.20;;;11.23;;
51883;SDS011;37915;53.254;6.598;2024-03-22T07:45:03;19.95;;;11.02;;
51883;SDS011;37915;53.254;6.598;2024-03-22T07:47:30;21.13;;;10.38;;
51883;SDS011;37915;53.254;6.598;2024-03-22T07:49:56;25.33;;;11.15;;
51883;SDS011;37915;53.254;6.598;2024-03-22T07:52:22;25.02;;;11.25;;
51883;SDS011;37915;53.254;6.598;2024-03-22T07:54:49;23.23;;;10.65;;
51883;SDS011;37915;53.254;6.598;2024-03-22T07:57:15;23.48;;;10.63;;
51883;SDS011;37915;53.254;6.598;2024-03-22T07:59:41;19.92;;;10.30;;
51883;SDS011;37915;53.254;6.598;2024-03-22T08:02:09;22.42;;;10.65;;
51883;SDS011;37915;53.254;6.598;2024-03-22T08:04:35;20.52;;;9.43;;
51883;SDS011;37915;53.254;6.598;2024-03-22T08:07:01;19.10;;;9.57;;
51883;SDS011;37915;53.254;6.598;2024-03-22T08:09:27;19.38;;;9.65;;
51883;SDS011;37915;53.254;6.598;2024-03-22T08:11:53;18.50;;;10.20;;
51883;SDS011;37915;53.254;6.598;2024-03-22T08:14:19;18.90;;;8.73;;
51883;SDS011;37915;53.254;6.598;2024-03-22T08:16:45;17.15;;;9.23;;
51883;SDS011;37915;53.254;6.598;2024-03-22T08:19:11;18.52;;;9.63;;
51883;SDS011;37915;53.254;6.598;2024-03-22T08:21:38;18.08;;;9.32;;
51883;SDS011;37915;53.254;6.598;2024-03-22T08:24:04;14.23;;;7.90;;
51883;SDS011;37915;53.254;6.598;2024-03-22T08:26:30;16.20;;;9.25;;
51883;SDS011;37915;53.254;6.598;2024-03-22T08:28:57;18.98;;;8.50;;
51883;SDS011;37915;53.254;6.598;2024-03-22T08:31:23;16.90;;;7.68;;
51883;SDS011;37915;53.254;6.598;2024-03-22T08:33:51;18.63;;;8.90;;
51883;SDS011;37915;53.254;6.598;2024-03-22T08:36:17;13.95;;;8.57;;
51883;SDS011;37915;53.254;6.598;2024-03-22T08:38:43;16.30;;;7.90;;
51883;SDS011;37915;53.254;6.598;2024-03-22T08:41:09;19.02;;;8.75;;
51883;SDS011;37915;53.254;6.598;2024-03-22T08:43:35;14.18;;;7.30;;
51883;SDS011;37915;53.254;6.598;2024-03-22T08:46:01;12.68;;;6.93;;
51883;SDS011;37915;53.254;6.598;2024-03-22T08:48:28;12.43;;;6.97;;
51883;SDS011;37915;53.254;6.598;2024-03-22T08:50:54;15.27;;;7.47;;
51883;SDS011;37915;53.254;6.598;2024-03-22T08:53:20;12.63;;;7.07;;
51883;SDS011;37915;53.254;6.598;2024-03-22T08:55:47;12.60;;;7.00;;
51883;SDS011;37915;53.254;6.598;2024-03-22T08:58:16;9.65;;;5.90;;
51883;SDS011;37915;53.254;6.598;2024-03-22T09:00:43;10.93;;;6.28;;
51883;SDS011;37915;53.254;6.598;2024-03-22T09:03:09;10.90;;;5.80;;
51883;SDS011;37915;53.254;6.598;2024-03-22T09:05:35;9.57;;;6.10;;
51883;SDS011;37915;53.254;6.598;2024-03-22T09:08:02;9.82;;;5.40;;
51883;SDS011;37915;53.254;6.598;2024-03-22T09:10:29;10.38;;;5.70;;
51883;SDS011;37915;53.254;6.598;2024-03-22T09:12:55;11.02;;;5.28;;
51883;SDS011;37915;53.254;6.598;2024-03-22T09:15:21;9.30;;;5.80;;
51883;SDS011;37915;53.254;6.598;2024-03-22T09:17:48;11.45;;;5.88;;
51883;SDS011;37915;53.254;6.598;2024-03-22T09:20:15;8.95;;;5.10;;
51883;SDS011;37915;53.254;6.598;2024-03-22T09:22:41;10.60;;;5.13;;
51883;SDS011;37915;53.254;6.598;2024-03-22T09:25:07;9.75;;;5.35;;
51883;SDS011;37915;53.254;6.598;2024-03-22T09:27:33;9.30;;;4.82;;
51883;SDS011;37915;53.254;6.598;2024-03-22T09:29:59;10.43;;;5.32;;
51883;SDS011;37915;53.254;6.598;2024-03-22T09:32:26;8.38;;;4.38;;
51883;SDS011;37915;53.254;6.598;2024-03-22T09:34:52;8.50;;;4.47;;
51883;SDS011;37915;53.254;6.598;2024-03-22T09:37:18;7.18;;;4.35;;
51883;SDS011;37915;53.254;6.598;2024-03-22T09:39:44;9.82;;;4.55;;
51883;SDS011;37915;53.254;6.598;2024-03-22T09:42:13;9.07;;;5.13;;
51883;SDS011;37915;53.254;6.598;2024-03-22T09:44:40;9.35;;;4.40;;
51883;SDS011;37915;53.254;6.598;2024-03-22T09:47:08;8.70;;;4.60;;
51883;SDS011;37915;53.254;6.598;2024-03-22T09:49:34;7.65;;;4.35;;
51883;SDS011;37915;53.254;6.598;2024-03-22T09:52:00;7.85;;;3.70;;
51883;SDS011;37915;53.254;6.598;2024-03-22T09:54:28;8.45;;;4.32;;
51883;SDS011;37915;53.254;6.598;2024-03-22T09:56:55;6.97;;;4.03;;
51883;SDS011;37915;53.254;6.598;2024-03-22T09:59:22;7.55;;;3.90;;
51883;SDS011;37915;53.254;6.598;2024-03-22T10:01:48;6.22;;;3.72;;
51883;SDS011;37915;53.254;6.598;2024-03-22T10:04:15;7.72;;;3.78;;
51883;SDS011;37915;53.254;6.598;2024-03-22T10:06:41;6.95;;;3.72;;
51883;SDS011;37915;53.254;6.598;2024-03-22T10:09:07;5.28;;;3.15;;
51883;SDS011;37915;53.254;6.598;2024-03-22T10:11:34;6.05;;;3.08;;
51883;SDS011;37915;53.254;6.598;2024-03-22T10:14:00;5.90;;;3.22;;
51883;SDS011;37915;53.254;6.598;2024-03-22T10:16:32;6.30;;;3.53;;
51883;SDS011;37915;53.254;6.598;2024-03-22T10:18:58;7.10;;;3.38;;
51883;SDS011;37915;53.254;6.598;2024-03-22T10:21:25;5.97;;;3.95;;
51883;SDS011;37915;53.254;6.598;2024-03-22T10:23:53;6.13;;;3.10;;
51883;SDS011;37915;53.254;6.598;2024-03-22T10:26:19;8.23;;;3.35;;
51883;SDS011;37915;53.254;6.598;2024-03-22T10:28:45;7.68;;;3.50;;
51883;SDS011;37915;53.254;6.598;2024-03-22T10:31:12;6.15;;;3.08;;
51883;SDS011;37915;53.254;6.598;2024-03-22T10:33:40;6.20;;;3.05;;
51883;SDS011;37915;53.254;6.598;2024-03-22T10:36:06;5.95;;;2.80;;
51883;SDS011;37915;53.254;6.598;2024-03-22T10:57:59;4.65;;;1.92;;
51883;SDS011;37915;53.254;6.598;2024-03-22T12:24:05;10.70;;;2.75;;
51883;SDS011;37915;53.254;6.598;2024-03-22T12:33:09;10.38;;;2.72;;
51883;SDS011;37915;53.254;6.598;2024-03-22T12:37:17;10.27;;;3.17;;
51883;SDS011;37915;53.254;6.598;2024-03-22T12:39:43;8.68;;;3.05;;
51883;SDS011;37915;53.254;6.598;2024-03-22T12:42:09;6.78;;;2.63;;
51883;SDS011;37915;53.254;6.598;2024-03-22T12:44:35;6.30;;;2.80;;
51883;SDS011;37915;53.254;6.598;2024-03-22T12:47:02;7.82;;;3.03;;
51883;SDS011;37915;53.254;6.598;2024-03-22T12:49:28;7.90;;;2.30;;
51883;SDS011;37915;53.254;6.598;2024-03-22T12:51:55;7.20;;;2.30;;
51883;SDS011;37915;53.254;6.598;2024-03-22T12:54:22;6.18;;;2.00;;
51883;SDS011;37915;53.254;6.598;2024-03-22T12:56:48;6.75;;;2.08;;
51883;SDS011;37915;53.254;6.598;2024-03-22T12:59:14;5.82;;;2.38;;
51883;SDS011;37915;53.254;6.598;2024-03-22T13:01:40;5.43;;;2.40;;
51883;SDS011;37915;53.254;6.598;2024-03-22T13:04:06;8.35;;;3.00;;
51883;SDS011;37915;53.254;6.598;2024-03-22T13:06:32;7.55;;;3.28;;
51883;SDS011;37915;53.254;6.598;2024-03-22T13:08:59;6.53;;;2.97;;
51883;SDS011;37915;53.254;6.598;2024-03-22T13:11:27;8.30;;;3.10;;
51883;SDS011;37915;53.254;6.598;2024-03-22T13:13:53;5.57;;;2.47;;
51883;SDS011;37915;53.254;6.598;2024-03-22T13:16:20;8.45;;;2.78;;
51883;SDS011;37915;53.254;6.598;2024-03-22T13:18:46;12.27;;;3.78;;
51883;SDS011;37915;53.254;6.598;2024-03-22T13:21:12;11.10;;;3.08;;
51883;SDS011;37915;53.254;6.598;2024-03-22T13:23:38;11.98;;;3.90;;
51883;SDS011;37915;53.254;6.598;2024-03-22T13:26:04;10.75;;;3.38;;
51883;SDS011;37915;53.254;6.598;2024-03-22T13:28:31;7.38;;;3.83;;
51883;SDS011;37915;53.254;6.598;2024-03-22T13:31:04;8.05;;;3.15;;
51883;SDS011;37915;53.254;6.598;2024-03-22T13:33:34;11.80;;;3.35;;
51883;SDS011;37915;53.254;6.598;2024-03-22T13:36:00;14.52;;;4.15;;
51883;SDS011;37915;53.254;6.598;2024-03-22T13:38:26;10.93;;;3.60;;
51883;SDS011;37915;53.254;6.598;2024-03-22T13:40:54;13.98;;;4.15;;
51883;SDS011;37915;53.254;6.598;2024-03-22T13:43:20;12.15;;;3.55;;
51883;SDS011;37915;53.254;6.598;2024-03-22T13:45:47;10.48;;;3.55;;
51883;SDS011;37915;53.254;6.598;2024-03-22T13:48:14;9.50;;;3.50;;
51883;SDS011;37915;53.254;6.598;2024-03-22T13:50:40;9.40;;;3.80;;
51883;SDS011;37915;53.254;6.598;2024-03-22T13:53:06;8.13;;;3.38;;
51883;SDS011;37915;53.254;6.598;2024-03-22T13:55:33;11.80;;;4.03;;
51883;SDS011;37915;53.254;6.598;2024-03-22T13:57:59;10.30;;;2.90;;
51883;SDS011;37915;53.254;6.598;2024-03-22T14:00:26;7.65;;;2.60;;
51883;SDS011;37915;53.254;6.598;2024-03-22T14:02:52;10.98;;;2.90;;
51883;SDS011;37915;53.254;6.598;2024-03-22T14:05:20;9.95;;;3.70;;
51883;SDS011;37915;53.254;6.598;2024-03-22T14:07:49;9.68;;;3.05;;
51883;SDS011;37915;53.254;6.598;2024-03-22T14:10:15;15.82;;;3.90;;
51883;SDS011;37915;53.254;6.598;2024-03-22T14:12:41;11.98;;;3.33;;
51883;SDS011;37915;53.254;6.598;2024-03-22T14:15:08;11.93;;;3.60;;
51883;SDS011;37915;53.254;6.598;2024-03-22T14:17:34;14.38;;;4.03;;
51883;SDS011;37915;53.254;6.598;2024-03-22T14:20:00;10.73;;;3.47;;
51883;SDS011;37915;53.254;6.598;2024-03-22T14:22:28;10.27;;;3.38;;
51883;SDS011;37915;53.254;6.598;2024-03-22T14:24:54;13.15;;;4.15;;
51883;SDS011;37915;53.254;6.598;2024-03-22T14:27:20;9.07;;;3.45;;
51883;SDS011;37915;53.254;6.598;2024-03-22T14:29:46;11.27;;;3.38;;
51883;SDS011;37915;53.254;6.598;2024-03-22T14:32:12;9.30;;;3.20;;
51883;SDS011;37915;53.254;6.598;2024-03-22T14:34:38;9.57;;;3.30;;
51883;SDS011;37915;53.254;6.598;2024-03-22T14:37:05;10.00;;;3.13;;
51883;SDS011;37915;53.254;6.598;2024-03-22T14:39:31;9.98;;;2.97;;
51883;SDS011;37915;53.254;6.598;2024-03-22T14:41:58;8.07;;;2.95;;
51883;SDS011;37915;53.254;6.598;2024-03-22T14:44:24;16.42;;;3.47;;
51883;SDS011;37915;53.254;6.598;2024-03-22T14:46:50;14.15;;;3.28;;
51883;SDS011;37915;53.254;6.598;2024-03-22T14:49:16;10.98;;;3.33;;
51883;SDS011;37915;53.254;6.598;2024-03-22T14:51:42;12.70;;;2.53;;
51883;SDS011;37915;53.254;6.598;2024-03-22T14:54:09;10.93;;;3.55;;
51883;SDS011;37915;53.254;6.598;2024-03-22T14:56:35;13.95;;;3.17;;
51883;SDS011;37915;53.254;6.598;2024-03-22T14:59:01;14.73;;;2.85;;
51883;SDS011;37915;53.254;6.598;2024-03-22T15:01:28;10.45;;;2.83;;
51883;SDS011;37915;53.254;6.598;2024-03-22T15:03:54;16.40;;;2.72;;
51883;SDS011;37915;53.254;6.598;2024-03-22T15:06:20;10.73;;;2.40;;
51883;SDS011;37915;53.254;6.598;2024-03-22T15:08:46;14.55;;;3.45;;
51883;SDS011;37915;53.254;6.598;2024-03-22T15:11:12;12.93;;;2.60;;
51883;SDS011;37915;53.254;6.598;2024-03-22T15:13:38;12.35;;;2.13;;
51883;SDS011;37915;53.254;6.598;2024-03-22T15:16:04;13.80;;;3.20;;
51883;SDS011;37915;53.254;6.598;2024-03-22T15:18:30;13.98;;;2.38;;
51883;SDS011;37915;53.254;6.598;2024-03-22T15:20:56;13.38;;;3.15;;
51883;SDS011;37915;53.254;6.598;2024-03-22T15:23:22;17.50;;;2.95;;
51883;SDS011;37915;53.254;6.598;2024-03-22T15:25:48;13.20;;;3.30;;
51883;SDS011;37915;53.254;6.598;2024-03-22T15:28:15;11.18;;;2.30;;
51883;SDS011;37915;53.254;6.598;2024-03-22T15:30:41;12.75;;;2.97;;
51883;SDS011;37915;53.254;6.598;2024-03-22T15:33:07;7.07;;;2.35;;
51883;SDS011;37915;53.254;6.598;2024-03-22T15:35:36;14.93;;;3.80;;
51883;SDS011;37915;53.254;6.598;2024-03-22T15:38:03;10.00;;;2.83;;
51883;SDS011;37915;53.254;6.598;2024-03-22T15:40:29;12.45;;;2.05;;
51883;SDS011;37915;53.254;6.598;2024-03-22T15:42:57;18.73;;;3.38;;
51883;SDS011;37915;53.254;6.598;2024-03-22T15:45:24;8.98;;;2.72;;
51883;SDS011;37915;53.254;6.598;2024-03-22T15:47:50;12.38;;;2.60;;
51883;SDS011;37915;53.254;6.598;2024-03-22T15:50:16;10.77;;;2.40;;
51883;SDS011;37915;53.254;6.598;2024-03-22T15:52:43;13.77;;;2.80;;
51883;SDS011;37915;53.254;6.598;2024-03-22T15:55:09;10.40;;;2.38;;
51883;SDS011;37915;53.254;6.598;2024-03-22T15:57:35;7.72;;;2.42;;
51883;SDS011;37915;53.254;6.598;2024-03-22T16:00:01;13.43;;;2.95;;
51883;SDS011;37915;53.254;6.598;2024-03-22T16:02:28;13.82;;;2.83;;
51883;SDS011;37915;53.254;6.598;2024-03-22T16:04:54;13.77;;;2.83;;
51883;SDS011;37915;53.254;6.598;2024-03-22T16:07:21;17.42;;;3.33;;
51883;SDS011;37915;53.254;6.598;2024-03-22T16:09:47;15.50;;;3.63;;
51883;SDS011;37915;53.254;6.598;2024-03-22T16:12:14;14.25;;;2.67;;
51883;SDS011;37915;53.254;6.598;2024-03-22T16:14:40;10.32;;;3.13;;
51883;SDS011;37915;53.254;6.598;2024-03-22T16:17:06;11.57;;;3.75;;